createdAt,value
2023-07-18T00:00:45.552Z,17.54
2023-07-18T00:01:45.462Z,17.46
2023-07-18T00:02:45.487Z,17.44
2023-07-18T00:03:45.510Z,17.41
2023-07-18T00:04:45.538Z,17.41
2023-07-18T00:05:45.512Z,17.39
2023-07-18T00:06:45.501Z,17.39
2023-07-18T00:07:45.592Z,17.39
2023-07-18T00:08:45.548Z,17.39
2023-07-18T00:09:45.579Z,17.39
2023-07-18T00:10:45.592Z,17.41
2023-07-18T00:11:45.598Z,17.41
2023-07-18T00:12:45.615Z,17.39
2023-07-18T00:13:45.610Z,17.39
2023-07-18T00:14:45.659Z,17.41
2023-07-18T00:15:45.691Z,17.41
2023-07-18T00:16:45.685Z,17.42
2023-07-18T00:17:45.727Z,17.44
2023-07-18T00:18:45.728Z,17.46
2023-07-18T00:19:45.737Z,17.48
2023-07-18T00:20:45.752Z,17.49
2023-07-18T00:21:45.745Z,17.52
2023-07-18T00:22:45.796Z,17.54
2023-07-18T00:23:45.806Z,17.56
2023-07-18T00:24:45.798Z,17.56
2023-07-18T00:25:45.842Z,17.54
2023-07-18T00:26:45.823Z,17.48
2023-07-18T00:27:45.879Z,17.44
2023-07-18T00:28:45.879Z,17.38
2023-07-18T00:29:45.882Z,17.33
2023-07-18T00:30:45.918Z,17.29
2023-07-18T00:31:45.963Z,17.27
2023-07-18T00:32:46.013Z,17.27
2023-07-18T00:33:45.966Z,17.26
2023-07-18T00:34:45.983Z,17.27
2023-07-18T00:35:45.969Z,17.29
2023-07-18T00:36:45.986Z,17.26
2023-07-18T00:37:46.121Z,17.26
2023-07-18T00:38:46.012Z,17.27
2023-07-18T00:39:46.028Z,17.29
2023-07-18T00:40:46.030Z,17.29
2023-07-18T00:41:46.120Z,17.30
2023-07-18T00:42:46.100Z,17.30
2023-07-18T00:43:46.109Z,17.31
2023-07-18T00:44:46.125Z,17.30
2023-07-18T00:45:46.126Z,17.31
2023-07-18T00:46:46.163Z,17.31
2023-07-18T00:47:46.167Z,17.33
2023-07-18T00:48:46.165Z,17.33
2023-07-18T00:49:46.201Z,17.31
2023-07-18T00:50:46.193Z,17.31
2023-07-18T00:51:46.239Z,17.31
2023-07-18T00:52:46.300Z,17.30
2023-07-18T00:53:46.235Z,17.29
2023-07-18T00:54:46.257Z,17.29
2023-07-18T00:55:46.294Z,17.26
2023-07-18T00:56:46.313Z,17.23
2023-07-18T00:57:46.297Z,17.19
2023-07-18T00:58:46.329Z,17.12
2023-07-18T00:59:46.320Z,17.05
2023-07-18T01:00:46.363Z,16.97
2023-07-18T01:01:46.419Z,16.93
2023-07-18T01:02:46.460Z,16.86
2023-07-18T01:03:46.441Z,16.81
2023-07-18T01:04:46.407Z,16.79
2023-07-18T01:05:46.469Z,16.76
2023-07-18T01:06:46.459Z,16.76
2023-07-18T01:07:46.449Z,16.76
2023-07-18T01:08:46.471Z,16.78
2023-07-18T01:09:46.504Z,16.79
2023-07-18T01:10:46.513Z,16.83
2023-07-18T01:11:46.528Z,16.86
2023-07-18T01:12:46.583Z,16.89
2023-07-18T01:13:46.560Z,16.90
2023-07-18T01:14:46.596Z,16.94
2023-07-18T01:15:46.642Z,16.97
2023-07-18T01:16:46.586Z,17.01
2023-07-18T01:17:46.925Z,17.04
2023-07-18T01:18:46.618Z,17.05
2023-07-18T01:19:46.650Z,17.05
2023-07-18T01:20:46.637Z,17.05
2023-07-18T01:21:46.653Z,17.04
2023-07-18T01:22:46.713Z,16.99
2023-07-18T01:23:46.761Z,16.94
2023-07-18T01:24:46.714Z,16.91
2023-07-18T01:25:46.708Z,16.89
2023-07-18T01:26:46.721Z,16.90
2023-07-18T01:27:46.753Z,16.86
2023-07-18T01:28:46.765Z,16.86
2023-07-18T01:29:46.758Z,16.86
2023-07-18T01:30:46.810Z,16.87
2023-07-18T01:31:46.837Z,16.89
2023-07-18T01:32:46.838Z,16.90
2023-07-18T01:33:46.839Z,16.94
2023-07-18T01:34:46.841Z,16.97
2023-07-18T01:35:46.860Z,16.96
2023-07-18T01:36:46.905Z,16.94
2023-07-18T01:37:46.920Z,16.94
2023-07-18T01:38:46.955Z,16.94
2023-07-18T01:39:46.928Z,16.91
2023-07-18T01:40:46.943Z,16.87
2023-07-18T01:41:46.969Z,16.79
2023-07-18T01:42:46.999Z,16.72
2023-07-18T01:43:47.009Z,16.66
2023-07-18T01:44:47.053Z,16.65
2023-07-18T01:45:47.044Z,16.68
2023-07-18T01:46:47.074Z,16.68
2023-07-18T01:47:47.086Z,16.69
2023-07-18T01:48:47.073Z,16.71
2023-07-18T01:49:47.077Z,16.71
2023-07-18T01:50:47.098Z,16.71
2023-07-18T01:51:47.137Z,16.69
2023-07-18T01:52:47.146Z,16.69
2023-07-18T01:53:50.769Z,16.69
2023-07-18T01:54:47.163Z,16.68
2023-07-18T01:55:47.169Z,16.64
2023-07-18T01:56:47.222Z,16.61
2023-07-18T01:57:47.208Z,16.60
2023-07-18T01:58:47.229Z,16.58
2023-07-18T01:59:47.230Z,16.54
2023-07-18T02:00:47.270Z,16.54
2023-07-18T02:01:47.320Z,16.50
2023-07-18T02:02:47.389Z,16.49
2023-07-18T02:03:47.286Z,16.47
2023-07-18T02:04:47.304Z,16.43
2023-07-18T02:05:47.334Z,16.41
2023-07-18T02:06:47.355Z,16.41
2023-07-18T02:07:47.352Z,16.39
2023-07-18T02:08:47.370Z,16.41
2023-07-18T02:09:47.384Z,16.43
2023-07-18T02:10:47.420Z,16.41
2023-07-18T02:11:47.406Z,16.41
2023-07-18T02:12:47.430Z,16.39
2023-07-18T02:13:47.432Z,16.38
2023-07-18T02:14:47.458Z,16.36
2023-07-18T02:15:47.463Z,16.35
2023-07-18T02:16:47.492Z,16.31
2023-07-18T02:17:47.539Z,16.29
2023-07-18T02:18:47.508Z,16.29
2023-07-18T02:19:47.539Z,16.29
2023-07-18T02:20:47.550Z,16.28
2023-07-18T02:21:47.559Z,16.26
2023-07-18T02:22:47.607Z,16.26
2023-07-18T02:23:48.152Z,16.24
2023-07-18T02:24:47.629Z,16.23
2023-07-18T02:25:47.612Z,16.21
2023-07-18T02:26:47.621Z,16.23
2023-07-18T02:27:47.665Z,16.24
2023-07-18T02:28:47.698Z,16.24
2023-07-18T02:29:47.683Z,16.24
2023-07-18T02:30:47.702Z,16.21
2023-07-18T02:31:47.692Z,16.16
2023-07-18T02:32:47.741Z,16.16
2023-07-18T02:33:47.742Z,16.15
2023-07-18T02:34:47.764Z,16.13
2023-07-18T02:35:47.761Z,16.09
2023-07-18T02:36:47.785Z,16.05
2023-07-18T02:37:47.824Z,16.02
2023-07-18T02:38:47.816Z,16.00
2023-07-18T02:39:47.813Z,15.90
2023-07-18T02:40:47.830Z,15.82
2023-07-18T02:41:47.842Z,15.73
2023-07-18T02:42:47.880Z,15.61
2023-07-18T02:43:47.885Z,15.59
2023-07-18T02:44:47.895Z,15.57
2023-07-18T02:45:50.408Z,15.57
2023-07-18T02:46:47.946Z,15.57
2023-07-18T02:47:47.954Z,15.59
2023-07-18T02:48:47.985Z,15.64
2023-07-18T02:49:47.970Z,15.67
2023-07-18T02:50:47.980Z,15.68
2023-07-18T02:51:47.991Z,15.70
2023-07-18T02:52:48.009Z,15.72
2023-07-18T02:53:48.022Z,15.76
2023-07-18T02:54:48.039Z,15.80
2023-07-18T02:55:48.055Z,15.80
2023-07-18T02:56:48.109Z,15.80
2023-07-18T02:57:48.079Z,15.79
2023-07-18T02:58:48.093Z,15.79
2023-07-18T02:59:48.108Z,15.76
2023-07-18T03:00:48.120Z,15.76
2023-07-18T03:01:48.187Z,15.73
2023-07-18T03:02:48.201Z,15.72
2023-07-18T03:03:48.198Z,15.68
2023-07-18T03:04:48.186Z,15.68
2023-07-18T03:05:48.196Z,15.65
2023-07-18T03:06:48.239Z,15.58
2023-07-18T03:07:48.219Z,15.55
2023-07-18T03:08:48.245Z,15.51
2023-07-18T03:09:48.250Z,15.46
2023-07-18T03:10:48.286Z,15.40
2023-07-18T03:11:48.291Z,15.36
2023-07-18T03:12:48.297Z,15.33
2023-07-18T03:13:48.312Z,15.31
2023-07-18T03:14:48.327Z,15.27
2023-07-18T03:15:48.378Z,15.25
2023-07-18T03:16:48.402Z,15.28
2023-07-18T03:17:48.396Z,15.28
2023-07-18T03:18:48.394Z,15.31
2023-07-18T03:19:48.396Z,15.36
2023-07-18T03:20:48.432Z,15.37
2023-07-18T03:21:48.424Z,15.37
2023-07-18T03:22:48.514Z,15.40
2023-07-18T03:23:48.457Z,15.42
2023-07-18T03:24:48.474Z,15.43
2023-07-18T03:25:48.504Z,15.46
2023-07-18T03:26:48.506Z,15.49
2023-07-18T03:27:48.553Z,15.51
2023-07-18T03:28:48.542Z,15.51
2023-07-18T03:29:48.572Z,15.51
2023-07-18T03:30:48.587Z,15.44
2023-07-18T03:31:48.619Z,15.42
2023-07-18T03:32:48.625Z,15.39
2023-07-18T03:33:48.606Z,15.37
2023-07-18T03:34:48.640Z,15.37
2023-07-18T03:35:48.657Z,15.35
2023-07-18T03:36:48.651Z,15.33
2023-07-18T03:37:48.667Z,15.29
2023-07-18T03:38:48.681Z,15.29
2023-07-18T03:39:48.713Z,15.27
2023-07-18T03:40:48.720Z,15.22
2023-07-18T03:41:48.729Z,15.19
2023-07-18T03:42:48.734Z,15.14
2023-07-18T03:43:48.770Z,15.06
2023-07-18T03:44:48.770Z,15.02
2023-07-18T03:45:48.816Z,15.00
2023-07-18T03:46:48.790Z,14.99
2023-07-18T03:47:48.861Z,15.00
2023-07-18T03:48:48.907Z,15.03
2023-07-18T03:49:48.843Z,15.04
2023-07-18T03:50:48.853Z,15.07
2023-07-18T03:51:48.867Z,15.09
2023-07-18T03:52:48.889Z,15.14
2023-07-18T03:53:48.922Z,15.18
2023-07-18T03:54:48.914Z,15.21
2023-07-18T03:55:48.919Z,15.21
2023-07-18T03:56:48.953Z,15.22
2023-07-18T03:57:48.986Z,15.25
2023-07-18T03:58:49.020Z,15.27
2023-07-18T03:59:48.991Z,15.22
2023-07-18T04:00:49.001Z,15.18
2023-07-18T04:01:49.056Z,15.15
2023-07-18T04:02:49.099Z,15.14
2023-07-18T04:03:49.063Z,15.17
2023-07-18T04:04:49.056Z,15.15
2023-07-18T04:05:49.083Z,15.17
2023-07-18T04:06:49.099Z,15.17
2023-07-18T04:07:49.197Z,15.17
2023-07-18T04:08:49.113Z,15.15
2023-07-18T04:09:49.134Z,15.14
2023-07-18T04:10:49.149Z,15.14
2023-07-18T04:11:49.179Z,15.11
2023-07-18T04:12:49.188Z,15.07
2023-07-18T04:13:49.192Z,15.02
2023-07-18T04:14:49.205Z,14.96
2023-07-18T04:15:49.234Z,14.92
2023-07-18T04:16:49.271Z,14.89
2023-07-18T04:17:49.304Z,14.88
2023-07-18T04:18:49.258Z,14.88
2023-07-18T04:19:49.278Z,14.86
2023-07-18T04:20:49.283Z,14.85
2023-07-18T04:21:49.311Z,14.84
2023-07-18T04:22:49.338Z,14.82
2023-07-18T04:23:49.329Z,14.79
2023-07-18T04:24:49.339Z,14.78
2023-07-18T04:25:49.377Z,14.79
2023-07-18T04:26:49.386Z,14.79
2023-07-18T04:27:49.384Z,14.77
2023-07-18T04:28:49.399Z,14.78
2023-07-18T04:29:49.418Z,14.78
2023-07-18T04:30:49.459Z,14.81
2023-07-18T04:31:49.498Z,14.84
2023-07-18T04:32:49.535Z,14.85
2023-07-18T04:33:49.495Z,14.89
2023-07-18T04:34:49.489Z,14.92
2023-07-18T04:35:49.518Z,14.97
2023-07-18T04:36:49.520Z,14.99
2023-07-18T04:37:49.535Z,15.03
2023-07-18T04:38:49.540Z,15.07
2023-07-18T04:39:49.581Z,15.11
2023-07-18T04:40:49.586Z,15.18
2023-07-18T04:41:55.573Z,15.21
2023-07-18T04:42:49.603Z,15.24
2023-07-18T04:43:49.620Z,15.27
2023-07-18T04:44:49.649Z,15.22
2023-07-18T04:45:49.691Z,15.25
2023-07-18T04:46:49.777Z,15.28
2023-07-18T04:47:49.710Z,15.28
2023-07-18T04:48:49.696Z,15.31
2023-07-18T04:49:49.712Z,15.35
2023-07-18T04:50:49.725Z,15.37
2023-07-18T04:51:49.743Z,15.42
2023-07-18T04:52:49.752Z,15.44
2023-07-18T04:53:49.793Z,15.49
2023-07-18T04:54:49.792Z,15.52
2023-07-18T04:55:49.804Z,15.54
2023-07-18T04:56:49.846Z,15.58
2023-07-18T04:57:49.854Z,15.59
2023-07-18T04:58:49.866Z,15.61
2023-07-18T04:59:49.865Z,15.62
2023-07-18T05:00:49.915Z,15.65
2023-07-18T05:01:49.924Z,15.67
2023-07-18T05:02:49.937Z,15.68
2023-07-18T05:03:57.875Z,15.75
2023-07-18T05:04:49.959Z,15.77
2023-07-18T05:05:49.951Z,15.80
2023-07-18T05:06:50.039Z,15.83
2023-07-18T05:07:50.003Z,15.88
2023-07-18T05:08:50.010Z,15.91
2023-07-18T05:09:50.009Z,15.91
2023-07-18T05:10:50.031Z,15.95
2023-07-18T05:11:50.044Z,15.98
2023-07-18T05:12:50.068Z,16.02
2023-07-18T05:13:50.065Z,16.05
2023-07-18T05:14:50.076Z,16.12
2023-07-18T05:15:50.138Z,16.21
2023-07-18T05:16:50.104Z,16.28
2023-07-18T05:17:50.218Z,16.33
2023-07-18T05:18:50.129Z,16.39
2023-07-18T05:19:50.191Z,16.43
2023-07-18T05:20:50.167Z,16.50
2023-07-18T05:21:50.205Z,16.56
2023-07-18T05:22:50.268Z,16.64
2023-07-18T05:23:50.212Z,16.68
2023-07-18T05:24:50.233Z,16.74
2023-07-18T05:25:50.241Z,16.72
2023-07-18T05:26:50.276Z,16.72
2023-07-18T05:27:50.273Z,16.69
2023-07-18T05:28:50.287Z,16.72
2023-07-18T05:29:50.318Z,16.79
2023-07-18T05:30:50.325Z,16.81
2023-07-18T05:31:50.363Z,16.84
2023-07-18T05:32:50.387Z,16.89
2023-07-18T05:33:50.369Z,16.90
2023-07-18T05:34:50.382Z,16.94
2023-07-18T05:35:50.424Z,16.99
2023-07-18T05:36:50.411Z,17.04
2023-07-18T05:37:50.434Z,17.09
2023-07-18T05:38:50.490Z,17.11
2023-07-18T05:39:50.451Z,17.15
2023-07-18T05:40:50.492Z,17.22
2023-07-18T05:41:50.480Z,17.27
2023-07-18T05:42:50.500Z,17.30
2023-07-18T05:43:50.513Z,17.33
2023-07-18T05:44:50.525Z,17.39
2023-07-18T05:45:50.591Z,17.45
2023-07-18T05:46:50.555Z,17.51
2023-07-18T05:47:50.603Z,17.54
2023-07-18T05:48:50.578Z,17.59
2023-07-18T05:49:50.615Z,17.64
2023-07-18T05:50:50.631Z,17.68
2023-07-18T05:51:50.636Z,17.74
2023-07-18T05:52:50.648Z,17.80
2023-07-18T05:53:50.664Z,17.86
2023-07-18T05:54:50.780Z,17.89
2023-07-18T05:55:50.689Z,17.94
2023-07-18T05:56:50.704Z,18.00
2023-07-18T05:57:50.721Z,18.03
2023-07-18T05:58:50.724Z,18.07
2023-07-18T05:59:50.759Z,18.07
2023-07-18T06:00:50.786Z,18.11
2023-07-18T06:01:50.855Z,18.18
2023-07-18T06:02:50.888Z,18.23
2023-07-18T06:03:50.881Z,18.25
2023-07-18T06:04:50.835Z,18.29
2023-07-18T06:05:50.834Z,18.33
2023-07-18T06:06:50.838Z,18.37
2023-07-18T06:07:50.858Z,18.40
2023-07-18T06:08:50.877Z,18.43
2023-07-18T06:09:50.881Z,18.49
2023-07-18T06:10:50.892Z,18.52
2023-07-18T06:11:50.912Z,18.53
2023-07-18T06:12:50.928Z,18.59
2023-07-18T06:13:50.958Z,18.68
2023-07-18T06:14:50.977Z,18.73
2023-07-18T06:15:50.970Z,18.81
2023-07-18T06:16:51.064Z,18.88
2023-07-18T06:17:51.073Z,18.95
2023-07-18T06:18:51.012Z,19.08
2023-07-18T06:19:51.041Z,19.15
2023-07-18T06:20:51.051Z,19.19
2023-07-18T06:21:51.056Z,19.24
2023-07-18T06:22:51.194Z,19.27
2023-07-18T06:23:52.047Z,19.27
2023-07-18T06:24:51.108Z,19.29
2023-07-18T06:25:51.122Z,19.27
2023-07-18T06:26:51.246Z,19.27
2023-07-18T06:27:51.166Z,19.30
2023-07-18T06:28:53.941Z,19.31
2023-07-18T06:29:51.170Z,19.39
2023-07-18T06:30:51.203Z,19.41
2023-07-18T06:31:51.231Z,19.44
2023-07-18T06:32:51.299Z,19.47
2023-07-18T06:33:51.250Z,19.54
2023-07-18T06:34:51.250Z,19.63
2023-07-18T06:35:51.272Z,19.74
2023-07-18T06:36:51.309Z,19.85
2023-07-18T06:37:51.426Z,19.94
2023-07-18T06:38:51.315Z,20.00
2023-07-18T06:39:51.328Z,20.09
2023-07-18T06:40:51.354Z,20.14
2023-07-18T06:41:51.376Z,20.19
2023-07-18T06:42:51.372Z,20.22
2023-07-18T06:43:51.393Z,20.28
2023-07-18T06:44:51.403Z,20.31
2023-07-18T06:45:51.436Z,20.34
2023-07-18T06:46:51.472Z,20.39
2023-07-18T06:47:51.476Z,20.43
2023-07-18T06:48:51.455Z,20.43
2023-07-18T06:49:51.472Z,20.47
2023-07-18T06:50:51.487Z,20.51
2023-07-18T06:51:51.507Z,20.52
2023-07-18T06:52:51.515Z,20.51
2023-07-18T06:53:51.532Z,20.62
2023-07-18T06:54:51.545Z,20.66
2023-07-18T06:55:51.572Z,20.72
2023-07-18T06:56:51.580Z,20.70
2023-07-18T06:57:51.593Z,20.72
2023-07-18T06:58:51.611Z,20.75
2023-07-18T06:59:51.641Z,20.82
2023-07-18T07:00:51.658Z,20.85
2023-07-18T07:01:51.666Z,20.93
2023-07-18T07:02:51.714Z,21.00
2023-07-18T07:03:51.751Z,21.03
2023-07-18T07:04:51.722Z,21.03
2023-07-18T07:05:51.726Z,21.07
2023-07-18T07:06:51.725Z,21.11
2023-07-18T07:07:51.740Z,21.15
2023-07-18T07:08:51.793Z,21.20
2023-07-18T07:09:51.786Z,21.29
2023-07-18T07:10:51.771Z,21.35
2023-07-18T07:11:51.796Z,21.39
2023-07-18T07:12:51.807Z,21.45
2023-07-18T07:13:51.838Z,21.50
2023-07-18T07:14:51.845Z,21.51
2023-07-18T07:15:51.857Z,21.54
2023-07-18T07:16:51.895Z,21.54
2023-07-18T07:17:51.891Z,21.46
2023-07-18T07:18:51.966Z,21.45
2023-07-18T07:19:51.916Z,21.35
2023-07-18T07:20:51.931Z,21.36
2023-07-18T07:21:51.944Z,21.46
2023-07-18T07:22:52.000Z,21.51
2023-07-18T07:23:51.988Z,21.57
2023-07-18T07:24:51.975Z,21.54
2023-07-18T07:25:51.989Z,21.54
2023-07-18T07:26:52.005Z,21.52
2023-07-18T07:27:52.041Z,21.57
2023-07-18T07:28:52.059Z,21.64
2023-07-18T07:29:52.054Z,21.67
2023-07-18T07:30:52.116Z,21.69
2023-07-18T07:31:52.088Z,21.69
2023-07-18T07:32:52.168Z,21.75
2023-07-18T07:33:52.132Z,21.77
2023-07-18T07:34:52.144Z,21.77
2023-07-18T07:35:52.148Z,21.76
2023-07-18T07:36:52.180Z,21.76
2023-07-18T07:37:52.206Z,21.76
2023-07-18T07:38:52.214Z,21.79
2023-07-18T07:39:52.211Z,21.79
2023-07-18T07:40:52.221Z,21.80
2023-07-18T07:41:52.256Z,21.79
2023-07-18T07:42:52.251Z,21.82
2023-07-18T07:43:52.275Z,21.80
2023-07-18T07:44:52.283Z,21.83
2023-07-18T07:45:52.294Z,21.88
2023-07-18T07:46:52.401Z,21.91
2023-07-18T07:47:52.358Z,21.99
2023-07-18T07:48:52.345Z,22.10
2023-07-18T07:49:52.361Z,22.10
2023-07-18T07:50:52.392Z,22.13
2023-07-18T07:51:52.395Z,22.14
2023-07-18T07:52:52.402Z,22.20
2023-07-18T07:53:52.425Z,22.23
2023-07-18T07:54:52.436Z,22.25
2023-07-18T07:55:52.466Z,22.23
2023-07-18T07:56:52.467Z,22.23
2023-07-18T07:57:52.481Z,22.25
2023-07-18T07:59:52.515Z,22.25
2023-07-18T08:00:52.550Z,22.23
2023-07-18T08:01:53.747Z,22.29
2023-07-18T08:02:52.604Z,22.38
2023-07-18T08:03:52.635Z,22.45
2023-07-18T08:04:52.669Z,22.50
2023-07-18T08:05:52.585Z,22.53
2023-07-18T08:06:52.607Z,22.57
2023-07-18T08:07:52.618Z,22.62
2023-07-18T08:08:52.638Z,22.66
2023-07-18T08:09:52.658Z,22.57
2023-07-18T08:10:52.664Z,22.57
2023-07-18T08:11:52.684Z,22.57
2023-07-18T08:12:52.694Z,22.53
2023-07-18T08:13:52.706Z,22.48
2023-07-18T08:14:52.760Z,22.47
2023-07-18T08:15:52.726Z,22.48
2023-07-18T08:16:52.798Z,22.47
2023-07-18T08:17:52.786Z,22.48
2023-07-18T08:18:52.806Z,22.47
2023-07-18T08:19:52.812Z,22.48
2023-07-18T08:20:52.814Z,22.59
2023-07-18T08:21:52.828Z,22.63
2023-07-18T08:22:52.874Z,22.63
2023-07-18T08:23:52.878Z,22.70
2023-07-18T08:24:52.876Z,22.80
2023-07-18T08:25:52.884Z,22.80
2023-07-18T08:26:52.916Z,22.76
2023-07-18T08:27:52.932Z,22.78
2023-07-18T08:28:53.036Z,22.81
2023-07-18T08:29:52.965Z,22.83
2023-07-18T08:30:52.969Z,22.85
2023-07-18T08:31:53.049Z,22.90
2023-07-18T08:32:53.071Z,23.09
2023-07-18T08:33:53.025Z,23.15
2023-07-18T08:34:53.030Z,23.21
2023-07-18T08:35:53.048Z,23.27
2023-07-18T08:36:53.054Z,23.32
2023-07-18T08:37:53.089Z,23.34
2023-07-18T08:38:53.088Z,23.39
2023-07-18T08:39:53.099Z,23.36
2023-07-18T08:40:53.114Z,23.27
2023-07-18T08:41:53.159Z,23.24
2023-07-18T08:42:53.154Z,23.20
2023-07-18T08:43:53.158Z,23.20
2023-07-18T08:44:53.171Z,23.31
2023-07-18T08:45:53.220Z,23.48
2023-07-18T08:46:53.225Z,23.61
2023-07-18T08:47:53.238Z,23.65
2023-07-18T08:48:53.240Z,23.65
2023-07-18T08:49:53.247Z,23.65
2023-07-18T08:50:53.260Z,23.66
2023-07-18T08:51:53.306Z,23.66
2023-07-18T08:52:53.360Z,23.66
2023-07-18T08:53:53.315Z,23.68
2023-07-18T08:54:53.324Z,23.69
2023-07-18T08:55:53.355Z,23.69
2023-07-18T08:56:53.374Z,23.74
2023-07-18T08:57:53.364Z,23.80
2023-07-18T08:58:53.379Z,23.78
2023-07-18T08:59:53.392Z,23.83
2023-07-18T09:00:53.440Z,23.84
2023-07-18T09:01:53.480Z,23.87
2023-07-18T09:02:53.494Z,23.87
2023-07-18T09:03:53.490Z,23.88
2023-07-18T09:04:53.473Z,23.92
2023-07-18T09:05:53.506Z,23.98
2023-07-18T09:06:53.512Z,24.01
2023-07-18T09:07:53.516Z,24.05
2023-07-18T09:08:53.532Z,24.06
2023-07-18T09:09:53.543Z,24.16
2023-07-18T09:10:53.581Z,24.20
2023-07-18T09:11:53.565Z,24.17
2023-07-18T09:12:53.599Z,24.18
2023-07-18T09:13:53.597Z,24.26
2023-07-18T09:14:53.623Z,24.20
2023-07-18T09:15:53.649Z,24.20
2023-07-18T09:16:53.714Z,24.17
2023-07-18T09:17:53.810Z,24.21
2023-07-18T09:18:53.674Z,24.28
2023-07-18T09:19:53.716Z,24.28
2023-07-18T09:20:53.706Z,24.26
2023-07-18T09:21:53.712Z,24.24
2023-07-18T09:22:53.792Z,24.33
2023-07-18T09:23:53.750Z,24.36
2023-07-18T09:24:53.765Z,24.38
2023-07-18T09:25:53.783Z,24.39
2023-07-18T09:26:53.800Z,24.42
2023-07-18T09:27:53.859Z,24.42
2023-07-18T09:28:53.869Z,24.47
2023-07-18T09:29:53.839Z,24.48
2023-07-18T09:30:53.856Z,24.47
2023-07-18T09:31:53.898Z,24.48
2023-07-18T09:32:53.929Z,24.47
2023-07-18T09:33:53.909Z,24.48
2023-07-18T09:34:53.928Z,24.57
2023-07-18T09:35:53.956Z,24.65
2023-07-18T09:36:53.943Z,24.73
2023-07-18T09:37:53.956Z,24.70
2023-07-18T09:38:54.003Z,24.65
2023-07-18T09:39:53.981Z,24.51
2023-07-18T09:40:54.004Z,24.45
2023-07-18T09:41:54.017Z,24.42
2023-07-18T09:42:55.854Z,24.35
2023-07-18T09:44:05.700Z,24.35
2023-07-18T09:44:54.368Z,24.42
2023-07-18T09:45:54.079Z,24.51
2023-07-18T09:46:54.092Z,24.58
2023-07-18T09:47:54.160Z,24.73
2023-07-18T09:48:54.125Z,24.85
2023-07-18T09:49:54.152Z,24.88
2023-07-18T09:50:54.160Z,24.91
2023-07-18T09:51:54.172Z,24.93
2023-07-18T09:52:55.214Z,24.91
2023-07-18T09:53:55.039Z,24.88
2023-07-18T09:54:54.238Z,24.92
2023-07-18T09:55:54.236Z,24.86
2023-07-18T09:56:54.308Z,24.88
2023-07-18T09:57:54.259Z,24.93
2023-07-18T09:58:54.277Z,24.93
2023-07-18T09:59:54.294Z,24.93
2023-07-18T10:00:54.346Z,24.93
2023-07-18T10:01:54.361Z,24.91
2023-07-18T10:02:54.432Z,24.89
2023-07-18T10:03:54.437Z,24.80
2023-07-18T10:04:54.365Z,24.78
2023-07-18T10:05:54.390Z,24.85
2023-07-18T10:06:54.414Z,24.91
2023-07-18T10:07:54.398Z,24.96
2023-07-18T10:08:54.426Z,25.03
2023-07-18T10:09:54.439Z,25.07
2023-07-18T10:10:54.471Z,25.14
2023-07-18T10:11:54.464Z,25.18
2023-07-18T10:12:54.476Z,25.26
2023-07-18T10:13:54.500Z,25.32
2023-07-18T10:14:54.516Z,25.32
2023-07-18T10:15:54.556Z,25.35
2023-07-18T10:16:54.671Z,25.40
2023-07-18T10:17:54.613Z,25.41
2023-07-18T10:18:54.581Z,25.44
2023-07-18T10:19:54.619Z,25.50
2023-07-18T10:20:54.630Z,25.54
2023-07-18T10:21:54.620Z,25.59
2023-07-18T10:22:54.759Z,25.62
2023-07-18T10:23:54.648Z,25.65
2023-07-18T10:24:54.685Z,25.72
2023-07-18T10:25:54.687Z,25.77
2023-07-18T10:26:54.697Z,25.75
2023-07-18T10:27:54.735Z,25.75
2023-07-18T10:28:54.722Z,25.78
2023-07-18T10:29:54.748Z,25.81
2023-07-18T10:30:54.782Z,25.78
2023-07-18T10:31:54.859Z,25.77
2023-07-18T10:32:54.810Z,25.81
2023-07-18T10:33:54.815Z,25.77
2023-07-18T10:34:54.846Z,25.80
2023-07-18T10:35:54.823Z,25.81
2023-07-18T10:36:54.896Z,25.84
2023-07-18T10:37:54.855Z,25.83
2023-07-18T10:38:54.903Z,25.81
2023-07-18T10:39:54.882Z,25.83
2023-07-18T10:40:54.904Z,25.85
2023-07-18T10:41:54.920Z,25.90
2023-07-18T10:42:54.940Z,25.91
2023-07-18T10:43:54.974Z,25.95
2023-07-18T10:44:54.979Z,25.96
2023-07-18T10:45:55.010Z,25.96
2023-07-18T10:46:55.028Z,25.99
2023-07-18T10:47:55.067Z,26.00
2023-07-18T10:48:55.050Z,26.02
2023-07-18T10:49:55.050Z,26.06
2023-07-18T10:50:55.067Z,26.09
2023-07-18T10:51:55.084Z,26.09
2023-07-18T10:52:55.125Z,26.10
2023-07-18T10:53:55.328Z,26.07
2023-07-18T10:54:55.132Z,26.13
2023-07-18T10:55:55.145Z,26.18
2023-07-18T10:56:55.180Z,26.22
2023-07-18T10:57:55.175Z,26.22
2023-07-18T10:58:55.193Z,26.23
2023-07-18T10:59:55.205Z,26.21
2023-07-18T11:00:55.260Z,26.15
2023-07-18T11:01:55.273Z,26.09
2023-07-18T11:02:55.325Z,26.00
2023-07-18T11:03:57.262Z,25.99
2023-07-18T11:04:55.293Z,25.96
2023-07-18T11:05:55.299Z,25.93
2023-07-18T11:06:55.348Z,25.91
2023-07-18T11:07:55.350Z,25.87
2023-07-18T11:08:55.362Z,25.84
2023-07-18T11:09:55.372Z,25.78
2023-07-18T11:10:55.413Z,25.68
2023-07-18T11:11:55.418Z,25.65
2023-07-18T11:12:55.413Z,25.62
2023-07-18T11:13:55.423Z,25.62
2023-07-18T11:14:55.815Z,25.59
2023-07-18T11:15:55.476Z,25.54
2023-07-18T11:16:55.650Z,25.47
2023-07-18T11:17:55.518Z,25.46
2023-07-18T11:18:55.513Z,25.46
2023-07-18T11:19:55.522Z,25.46
2023-07-18T11:20:55.554Z,25.47
2023-07-18T11:21:55.554Z,25.46
2023-07-18T11:22:55.630Z,25.47
2023-07-18T11:23:55.582Z,25.48
2023-07-18T11:24:55.601Z,25.50
2023-07-18T11:25:55.646Z,25.50
2023-07-18T11:26:55.649Z,25.54
2023-07-18T11:27:55.655Z,25.60
2023-07-18T11:28:55.662Z,25.63
2023-07-18T11:29:55.684Z,25.69
2023-07-18T11:30:55.759Z,25.69
2023-07-18T11:31:55.716Z,25.73
2023-07-18T11:32:55.732Z,25.83
2023-07-18T11:33:55.730Z,25.91
2023-07-18T11:34:55.789Z,26.03
2023-07-18T11:35:55.759Z,26.10
2023-07-18T11:36:55.767Z,26.26
2023-07-18T11:37:55.774Z,26.28
2023-07-18T11:38:55.790Z,26.21
2023-07-18T11:39:55.822Z,26.07
2023-07-18T11:40:55.861Z,26.10
2023-07-18T11:41:55.839Z,26.29
2023-07-18T11:42:55.960Z,26.26
2023-07-18T11:43:55.917Z,26.22
2023-07-18T11:44:55.910Z,26.18
2023-07-18T11:45:55.907Z,26.05
2023-07-18T11:46:56.270Z,25.91
2023-07-18T11:47:55.981Z,25.91
2023-07-18T11:48:56.090Z,25.88
2023-07-18T11:49:55.968Z,25.78
2023-07-18T11:50:55.984Z,25.62
2023-07-18T11:51:56.001Z,25.44
2023-07-18T11:52:56.015Z,25.38
2023-07-18T11:53:56.045Z,25.33
2023-07-18T11:54:56.045Z,25.32
2023-07-18T11:55:56.053Z,25.28
2023-07-18T11:56:56.078Z,25.22
2023-07-18T11:57:56.089Z,25.16
2023-07-18T11:58:56.121Z,25.07
2023-07-18T11:59:56.122Z,25.01
2023-07-18T12:00:56.130Z,24.93
2023-07-18T12:01:56.186Z,24.91
2023-07-18T12:02:56.222Z,24.86
2023-07-18T12:03:56.338Z,24.81
2023-07-18T12:04:56.234Z,24.76
2023-07-18T12:05:56.220Z,24.69
2023-07-18T12:06:56.257Z,24.65
2023-07-18T12:07:56.280Z,24.58
2023-07-18T12:08:56.264Z,24.54
2023-07-18T12:09:56.288Z,24.50
2023-07-18T12:11:08.758Z,24.45
2023-07-18T12:11:56.339Z,24.40
2023-07-18T12:12:56.325Z,24.38
2023-07-18T12:13:56.339Z,24.35
2023-07-18T12:14:56.362Z,24.33
2023-07-18T12:15:56.377Z,24.30
2023-07-18T12:16:56.410Z,24.30
2023-07-18T12:17:56.419Z,24.28
2023-07-18T12:18:56.418Z,24.26
2023-07-18T12:19:56.438Z,24.23
2023-07-18T12:20:56.441Z,24.20
2023-07-18T12:21:56.483Z,24.16
2023-07-18T12:22:56.494Z,24.13
2023-07-18T12:23:56.491Z,24.06
2023-07-18T12:24:56.499Z,24.01
2023-07-18T12:25:56.533Z,23.91
2023-07-18T12:26:56.565Z,23.81
2023-07-18T12:27:56.546Z,23.73
2023-07-18T12:28:56.572Z,23.63
2023-07-18T12:29:56.577Z,23.58
2023-07-18T12:30:56.707Z,23.51
2023-07-18T12:31:56.770Z,23.44
2023-07-18T12:32:56.661Z,23.36
2023-07-18T12:33:56.625Z,23.28
2023-07-18T12:34:56.631Z,23.21
2023-07-18T12:35:56.665Z,23.17
2023-07-18T12:36:56.657Z,23.09
2023-07-18T12:37:56.679Z,23.06
2023-07-18T12:38:56.698Z,23.02
2023-07-18T12:39:56.760Z,22.96
2023-07-18T12:40:56.742Z,22.93
2023-07-18T12:41:56.744Z,22.88
2023-07-18T12:42:56.751Z,22.85
2023-07-18T12:43:56.771Z,22.83
2023-07-18T12:44:56.796Z,22.80
2023-07-18T12:45:56.819Z,22.80
2023-07-18T12:46:57.184Z,22.76
2023-07-18T12:47:56.868Z,22.75
2023-07-18T12:49:03.622Z,22.70
2023-07-18T12:49:57.338Z,22.68
2023-07-18T12:50:56.875Z,22.66
2023-07-18T12:51:56.889Z,22.62
2023-07-18T12:52:56.902Z,22.59
2023-07-18T12:53:56.944Z,22.55